Time;durP1;ratioP1;P1;durP2;ratioP2;P2;SDS_P1;SDS_P2;PMS_P1;PMS_P2;Temp;Humidity;BMP_temperature;BMP_pressure;BME280_temperature;BME280_humidity;BME280_pressure;Samples;Min_cycle;Max_cycle;Signal;HPM_P1;HPM_P2
2022/04/16 00:00:28;;;;;;;7.60;2.85;;;;;;;;;;1813350;77;21000;-59
2022/04/16 00:02:56;;;;;;;5.80;1.85;;;;;;;;;;1798497;77;20953;-60
2022/04/16 00:05:25;;;;;;;8.38;1.85;;;;;;;;;;1804460;77;21427;-59
2022/04/16 00:08:06;;;;;;;6.28;1.92;;;;;;;;;;1808009;77;21089;-60
2022/04/16 00:10:19;;;;;;;9.78;2.00;;;;;;;;;;1791785;78;20882;-59
2022/04/16 00:12:45;;;;;;;5.40;1.75;;;;;;;;;;1822073;77;20953;-60
2022/04/16 00:15:12;;;;;;;7.42;2.25;;;;;;;;;;1797901;77;21089;-60
2022/04/16 00:17:38;;;;;;;7.22;2.47;;;;;;;;;;1780678;76;20929;-60
2022/04/16 00:20:09;;;;;;;5.92;2.02;;;;;;;;;;1803859;78;21137;-60
2022/04/16 00:22:32;;;;;;;6.95;1.80;;;;;;;;;;1813379;77;21586;-60
2022/04/16 00:24:58;;;;;;;4.72;1.90;;;;;;;;;;1809297;77;20899;-60
2022/04/16 00:27:24;;;;;;;6.97;1.90;;;;;;;;;;1796467;77;21405;-60
2022/04/16 00:29:50;;;;;;;8.15;2.05;;;;;;;;;;1781479;78;20926;-60
2022/04/16 00:32:19;;;;;;;8.18;2.80;;;;;;;;;;1796031;77;20914;-60
2022/04/16 00:34:45;;;;;;;8.95;1.77;;;;;;;;;;1809278;77;21447;-61
2022/04/16 00:37:11;;;;;;;7.15;2.35;;;;;;;;;;1793603;77;20985;-60
2022/04/16 00:39:37;;;;;;;5.28;1.90;;;;;;;;;;1807470;77;20966;-60
2022/04/16 00:42:03;;;;;;;4.85;2.17;;;;;;;;;;1778599;77;20937;-60
2022/04/16 00:44:29;;;;;;;7.78;2.42;;;;;;;;;;1792981;77;21273;-60
2022/04/16 00:46:56;;;;;;;5.10;1.72;;;;;;;;;;1805003;77;21008;-60
2022/04/16 00:49:24;;;;;;;5.40;2.08;;;;;;;;;;1747712;80;20949;-60
2022/04/16 00:51:50;;;;;;;8.88;2.22;;;;;;;;;;1790716;77;20981;-59
2022/04/16 00:54:18;;;;;;;6.80;1.90;;;;;;;;;;1769360;78;20969;-60
2022/04/16 00:56:44;;;;;;;3.83;1.67;;;;;;;;;;1789662;77;21576;-60
2022/04/16 00:59:10;;;;;;;6.62;2.25;;;;;;;;;;1839533;77;20977;-60
2022/04/16 01:01:36;;;;;;;11.75;2.40;;;;;;;;;;1791978;77;21020;-61
2022/04/16 01:04:02;;;;;;;5.65;1.92;;;;;;;;;;1780095;77;20985;-60
2022/04/16 01:06:38;;;;;;;6.50;3.00;;;;;;;;;;1773148;77;22302;-60
2022/04/16 01:09:04;;;;;;;8.78;2.72;;;;;;;;;;1799394;77;20996;-60
2022/04/16 01:11:32;;;;;;;7.80;2.37;;;;;;;;;;1797226;77;21659;-60
2022/04/16 01:13:59;;;;;;;9.38;2.65;;;;;;;;;;1768000;78;21428;-61
2022/04/16 01:16:28;;;;;;;10.10;2.72;;;;;;;;;;1809115;78;21434;-60
2022/04/16 01:18:55;;;;;;;8.08;2.27;;;;;;;;;;1808390;77;20996;-60
2022/04/16 01:21:21;;;;;;;5.72;2.35;;;;;;;;;;1788836;76;20944;-60
2022/04/16 01:23:47;;;;;;;6.47;1.85;;;;;;;;;;1749881;79;21116;-60
2022/04/16 01:26:13;;;;;;;6.33;2.20;;;;;;;;;;1805188;77;20894;-61
2022/04/16 01:28:40;;;;;;;6.67;2.10;;;;;;;;;;1826648;77;20910;-60
2022/04/16 01:31:07;;;;;;;11.00;2.50;;;;;;;;;;1791261;77;21583;-60
2022/04/16 01:33:33;;;;;;;10.88;2.77;;;;;;;;;;1808851;77;20933;-61
2022/04/16 01:35:59;;;;;;;7.97;2.27;;;;;;;;;;1810362;77;20938;-60
2022/04/16 01:38:26;;;;;;;5.97;1.92;;;;;;;;;;1788183;77;21045;-60
2022/04/16 01:40:55;;;;;;;9.78;2.12;;;;;;;;;;1807233;77;20997;-60
2022/04/16 01:43:22;;;;;;;6.53;2.25;;;;;;;;;;1788922;77;20958;-60
2022/04/16 01:45:49;;;;;;;6.15;2.12;;;;;;;;;;1809299;77;21000;-60
2022/04/16 01:48:16;;;;;;;8.58;2.52;;;;;;;;;;1770304;79;20948;-60
2022/04/16 01:50:42;;;;;;;7.85;2.15;;;;;;;;;;1802789;77;21037;-59
2022/04/16 01:53:08;;;;;;;6.28;2.40;;;;;;;;;;1811572;76;20932;-60
2022/04/16 01:55:34;;;;;;;9.65;1.85;;;;;;;;;;1803181;77;20874;-60
2022/04/16 01:58:00;;;;;;;6.00;2.92;;;;;;;;;;1796106;77;20991;-61
2022/04/16 02:00:27;;;;;;;7.72;2.25;;;;;;;;;;1793572;77;20969;-61
2022/04/16 02:02:53;;;;;;;8.90;2.58;;;;;;;;;;1782379;77;20965;-60
2022/04/16 02:05:19;;;;;;;12.00;3.40;;;;;;;;;;1804033;76;20882;-60
2022/04/16 02:07:45;;;;;;;14.00;3.72;;;;;;;;;;1807438;77;21047;-60
2022/04/16 02:10:16;;;;;;;8.08;3.10;;;;;;;;;;1808138;77;20974;-60
2022/04/16 02:12:39;;;;;;;8.43;2.72;;;;;;;;;;1817197;77;20997;-60
2022/04/16 02:15:06;;;;;;;10.32;2.50;;;;;;;;;;1816856;76;20859;-60
2022/04/16 02:17:32;;;;;;;7.67;2.70;;;;;;;;;;1805832;77;21059;-60
2022/04/16 02:19:58;;;;;;;9.38;1.98;;;;;;;;;;1823359;77;20953;-60
2022/04/16 02:22:25;;;;;;;6.75;2.35;;;;;;;;;;1806685;77;21083;-60
2022/04/16 02:24:51;;;;;;;7.95;2.75;;;;;;;;;;1796111;77;20978;-60
2022/04/16 02:27:17;;;;;;;7.17;2.60;;;;;;;;;;1806626;77;20948;-60
2022/04/16 02:29:43;;;;;;;8.55;1.98;;;;;;;;;;1804897;76;20902;-60
2022/04/16 02:32:09;;;;;;;6.97;2.10;;;;;;;;;;1807872;76;20933;-60
2022/04/16 02:34:35;;;;;;;10.20;2.55;;;;;;;;;;1826953;77;21432;-60
2022/04/16 02:37:01;;;;;;;8.48;2.25;;;;;;;;;;1768439;79;20914;-60
2022/04/16 02:39:27;;;;;;;11.38;2.05;;;;;;;;;;1740882;80;20938;-60
2022/04/16 02:41:53;;;;;;;10.70;3.30;;;;;;;;;;1806904;77;20851;-61
2022/04/16 02:47:08;;;;;;;9.88;2.75;;;;;;;;;;1809141;77;21574;-60
2022/04/16 02:49:35;;;;;;;5.72;2.22;;;;;;;;;;1803360;77;20935;-60
2022/04/16 02:52:02;;;;;;;9.25;2.80;;;;;;;;;;1796221;77;20966;-60
2022/04/16 02:54:28;;;;;;;5.33;2.10;;;;;;;;;;1794710;77;20957;-60
2022/04/16 02:56:56;;;;;;;9.40;3.15;;;;;;;;;;1808550;77;20875;-60
2022/04/16 02:59:22;;;;;;;5.28;2.42;;;;;;;;;;1811597;76;20921;-60
2022/04/16 03:01:48;;;;;;;9.40;2.67;;;;;;;;;;1792815;76;21439;-60
2022/04/16 03:04:14;;;;;;;7.92;2.58;;;;;;;;;;1804600;76;20996;-60
2022/04/16 03:06:41;;;;;;;9.23;2.55;;;;;;;;;;1801396;77;20938;-60
2022/04/16 03:09:08;;;;;;;6.12;2.47;;;;;;;;;;1779981;78;20957;-60
2022/04/16 03:11:34;;;;;;;5.45;2.40;;;;;;;;;;1791732;77;20898;-60
2022/04/16 03:17:31;;;;;;;7.00;2.83;;;;;;;;;;1798406;75;21106;-61
2022/04/16 03:19:13;;;;;;;9.03;1.98;;;;;;;;;;1819498;77;20969;-60
2022/04/16 03:21:39;;;;;;;6.00;2.42;;;;;;;;;;1786308;78;21005;-60
2022/04/16 03:24:05;;;;;;;8.93;2.20;;;;;;;;;;1791509;77;20980;-60
2022/04/16 03:26:31;;;;;;;7.92;3.17;;;;;;;;;;1796214;78;20976;-60
2022/04/16 03:28:57;;;;;;;10.68;3.20;;;;;;;;;;1758431;79;20974;-59
2022/04/16 03:31:24;;;;;;;7.47;2.55;;;;;;;;;;1779231;78;21012;-60
2022/04/16 03:33:50;;;;;;;6.97;2.35;;;;;;;;;;1759999;79;21049;-60
2022/04/16 03:36:15;;;;;;;7.75;2.50;;;;;;;;;;1802639;77;21021;-60
2022/04/16 03:38:42;;;;;;;9.18;2.72;;;;;;;;;;1791370;77;20941;-60
2022/04/16 03:41:08;;;;;;;5.85;2.50;;;;;;;;;;1797501;76;21044;-60
2022/04/16 03:43:34;;;;;;;13.93;2.80;;;;;;;;;;1809051;76;20964;-60
2022/04/16 03:46:00;;;;;;;6.55;2.87;;;;;;;;;;1783996;77;21470;-60
2022/04/16 03:48:26;;;;;;;10.05;2.70;;;;;;;;;;1769587;79;20910;-60
2022/04/16 03:50:52;;;;;;;5.17;2.52;;;;;;;;;;1754800;80;21040;-60
2022/04/16 03:53:18;;;;;;;11.75;2.85;;;;;;;;;;1750397;79;21001;-61
2022/04/16 04:01:14;;;;;;;11.53;3.70;;;;;;;;;;1801172;77;20969;-60
2022/04/16 04:03:40;;;;;;;6.95;2.83;;;;;;;;;;1801117;77;21564;-60
2022/04/16 04:06:06;;;;;;;11.40;2.92;;;;;;;;;;1827110;77;21076;-60
2022/04/16 04:08:33;;;;;;;9.28;2.92;;;;;;;;;;1810033;77;21016;-60
2022/04/16 04:10:59;;;;;;;11.83;2.87;;;;;;;;;;1813527;77;20924;-60
2022/04/16 04:13:26;;;;;;;10.78;3.50;;;;;;;;;;1797240;76;20984;-60
2022/04/16 04:15:52;;;;;;;8.83;2.70;;;;;;;;;;1801780;77;20963;-60
2022/04/16 04:18:18;;;;;;;11.55;3.00;;;;;;;;;;1810752;77;21595;-60
2022/04/16 04:20:44;;;;;;;5.65;2.40;;;;;;;;;;1811963;77;20897;-60
2022/04/16 04:23:10;;;;;;;9.20;3.05;;;;;;;;;;1798905;77;21379;-60
2022/04/16 04:30:46;;;;;;;8.58;3.37;;;;;;;;;;1863623;76;23344;-61
2022/04/16 04:33:11;;;;;;;8.40;3.20;;;;;;;;;;1838634;77;21434;-61
2022/04/16 04:35:37;;;;;;;5.35;2.50;;;;;;;;;;1811422;77;20914;-60
2022/04/16 04:38:03;;;;;;;13.22;3.60;;;;;;;;;;1765747;79;20985;-60
2022/04/16 04:40:29;;;;;;;5.12;2.90;;;;;;;;;;1798539;79;20851;-60
2022/04/16 04:42:55;;;;;;;12.85;3.30;;;;;;;;;;1773348;80;20966;-61
2022/04/16 04:45:21;;;;;;;7.80;2.35;;;;;;;;;;1793498;78;21049;-61
2022/04/16 04:47:47;;;;;;;6.85;2.90;;;;;;;;;;1783538;79;20938;-61
2022/04/16 04:50:13;;;;;;;11.00;3.02;;;;;;;;;;1813143;78;21640;-61
2022/04/16 04:52:40;;;;;;;10.38;3.12;;;;;;;;;;1807861;78;20993;-61
2022/04/16 04:55:08;;;;;;;5.57;2.87;;;;;;;;;;1814389;77;21333;-60
2022/04/16 04:57:37;;;;;;;9.65;3.55;;;;;;;;;;1822159;77;20973;-61
2022/04/16 05:00:04;;;;;;;9.75;3.10;;;;;;;;;;1770528;78;21444;-61
2022/04/16 05:02:51;;;;;;;11.57;2.37;;;;;;;;;;1814924;78;20941;-61
2022/04/16 05:05:17;;;;;;;7.08;2.52;;;;;;;;;;1815044;77;20962;-61
2022/04/16 05:07:44;;;;;;;7.12;2.65;;;;;;;;;;1811659;78;20966;-59
2022/04/16 05:10:10;;;;;;;5.80;2.35;;;;;;;;;;1814183;78;20973;-59
2022/04/16 05:12:36;;;;;;;9.48;2.50;;;;;;;;;;1808153;78;20978;-58
2022/04/16 05:15:02;;;;;;;8.13;2.52;;;;;;;;;;1793626;79;20886;-59
2022/04/16 05:17:29;;;;;;;4.45;2.20;;;;;;;;;;1814861;78;21391;-60
2022/04/16 05:19:56;;;;;;;7.20;2.85;;;;;;;;;;1819607;78;21478;-60
2022/04/16 05:22:22;;;;;;;7.30;3.87;;;;;;;;;;1828886;77;20985;-61
2022/04/16 05:25:08;;;;;;;6.78;3.62;;;;;;;;;;1774975;79;20849;-60
2022/04/16 05:27:35;;;;;;;4.15;2.25;;;;;;;;;;1748116;81;21463;-62
2022/04/16 05:32:34;;;;;;;5.47;2.80;;;;;;;;;;1732689;80;21639;-61
2022/04/16 05:35:01;;;;;;;6.35;2.70;;;;;;;;;;1737607;81;21039;-61
2022/04/16 05:37:27;;;;;;;4.65;2.15;;;;;;;;;;1706928;83;21323;-62
2022/04/16 05:39:53;;;;;;;6.80;2.33;;;;;;;;;;1729668;81;21172;-61
2022/04/16 05:42:22;;;;;;;5.33;1.90;;;;;;;;;;1736518;81;20938;-62
2022/04/16 05:44:48;;;;;;;6.50;2.30;;;;;;;;;;1732711;81;21405;-61
2022/04/16 05:47:15;;;;;;;6.90;2.10;;;;;;;;;;1717827;81;21542;-62
2022/04/16 05:49:42;;;;;;;4.97;2.02;;;;;;;;;;1711346;81;21134;-62
2022/04/16 05:52:09;;;;;;;6.15;2.15;;;;;;;;;;1704209;83;20973;-61
2022/04/16 05:54:35;;;;;;;;;;;;;;;;;;1745248;81;21055;-62
2022/04/16 05:57:01;;;;;;;4.55;2.37;;;;;;;;;;1730445;82;20134;-63
2022/04/16 05:59:27;;;;;;;5.90;1.92;;;;;;;;;;1741035;82;21113;-62
2022/04/16 06:01:53;;;;;;;3.17;1.70;;;;;;;;;;1738380;82;20988;-62
2022/04/16 06:04:19;;;;;;;6.55;1.77;;;;;;;;;;1740560;81;21033;-62
2022/04/16 06:06:46;;;;;;;5.55;2.40;;;;;;;;;;1740192;81;21029;-62
2022/04/16 06:09:12;;;;;;;4.17;2.15;;;;;;;;;;1743707;81;28601;-62
2022/04/16 06:11:38;;;;;;;5.35;2.50;;;;;;;;;;1737151;82;20989;-63
2022/04/16 06:14:04;;;;;;;4.35;1.98;;;;;;;;;;1739306;81;21342;-63
2022/04/16 06:16:30;;;;;;;4.35;2.08;;;;;;;;;;1739307;82;20958;-63
2022/04/16 06:18:56;;;;;;;5.47;1.90;;;;;;;;;;1737743;82;28177;-63
2022/04/16 06:21:22;;;;;;;6.80;2.37;;;;;;;;;;1741514;82;21775;-63
2022/04/16 06:23:49;;;;;;;8.63;2.57;;;;;;;;;;1739136;81;20903;-62
2022/04/16 06:26:14;;;;;;;4.22;2.02;;;;;;;;;;1747126;81;21410;-63
2022/04/16 06:28:41;;;;;;;4.67;2.60;;;;;;;;;;1737310;81;20918;-62
2022/04/16 06:31:06;;;;;;;5.33;1.95;;;;;;;;;;1702053;82;21012;-62
2022/04/16 06:33:32;;;;;;;6.83;2.50;;;;;;;;;;1737244;81;20899;-63
2022/04/16 06:35:58;;;;;;;5.17;1.60;;;;;;;;;;1737987;81;20978;-62
2022/04/16 06:38:25;;;;;;;4.35;2.10;;;;;;;;;;1737261;81;21382;-62
2022/04/16 06:40:50;;;;;;;1.87;1.00;;;;;;;;;;1706942;84;21539;-62
2022/04/16 06:43:16;;;;;;;3.22;1.00;;;;;;;;;;1717567;83;20935;-62
2022/04/16 06:45:42;;;;;;;2.52;0.82;;;;;;;;;;1718561;81;21038;-62
2022/04/16 06:48:08;;;;;;;3.80;1.20;;;;;;;;;;1734062;81;21663;-62
2022/04/16 06:50:34;;;;;;;4.87;1.50;;;;;;;;;;1735541;80;21017;-62
2022/04/16 06:53:00;;;;;;;4.10;1.47;;;;;;;;;;1740939;81;21009;-61
2022/04/16 06:55:26;;;;;;;6.45;1.62;;;;;;;;;;1737325;81;20980;-62
2022/04/16 06:57:52;;;;;;;6.75;1.62;;;;;;;;;;1707112;83;20986;-61
2022/04/16 07:00:18;;;;;;;4.33;1.80;;;;;;;;;;1736084;81;20999;-62
2022/04/16 07:02:44;;;;;;;5.55;1.30;;;;;;;;;;1710716;83;22213;-61
2022/04/16 07:05:10;;;;;;;5.80;1.80;;;;;;;;;;1733098;81;20996;-62
2022/04/16 07:07:36;;;;;;;5.33;2.00;;;;;;;;;;1699649;83;20918;-62
2022/04/16 07:10:07;;;;;;;7.30;2.17;;;;;;;;;;1740475;81;20977;-63
2022/04/16 07:12:33;;;;;;;5.45;1.87;;;;;;;;;;1744768;81;20981;-64
2022/04/16 07:14:59;;;;;;;5.17;1.70;;;;;;;;;;1740189;81;21060;-63
2022/04/16 07:17:27;;;;;;;4.20;1.20;;;;;;;;;;1720518;81;21018;-63
2022/04/16 07:19:54;;;;;;;2.92;1.00;;;;;;;;;;1735093;81;21784;-63
2022/04/16 07:22:21;;;;;;;8.15;1.20;;;;;;;;;;1744601;80;20946;-63
2022/04/16 07:24:48;;;;;;;7.27;1.30;;;;;;;;;;1749408;81;21088;-64
2022/04/16 07:27:16;;;;;;;4.35;1.20;;;;;;;;;;1717292;81;21338;-63
2022/04/16 07:29:42;;;;;;;2.95;1.05;;;;;;;;;;1705778;82;21068;-63
2022/04/16 07:32:10;;;;;;;5.33;1.47;;;;;;;;;;1702459;82;20930;-63
2022/04/16 07:34:36;;;;;;;4.72;1.65;;;;;;;;;;1680183;84;20964;-63
2022/04/16 07:37:02;;;;;;;6.58;1.40;;;;;;;;;;1705492;81;20906;-60
2022/04/16 07:39:29;;;;;;;4.85;1.40;;;;;;;;;;1696182;82;21202;-61
2022/04/16 07:41:55;;;;;;;1.98;1.20;;;;;;;;;;1675178;84;21539;-60
2022/04/16 07:44:21;;;;;;;6.42;1.40;;;;;;;;;;1705031;82;21581;-61
2022/04/16 07:46:47;;;;;;;4.28;1.20;;;;;;;;;;1703941;82;20910;-61
2022/04/16 07:49:13;;;;;;;2.67;1.12;;;;;;;;;;1654533;84;20996;-62
2022/04/16 07:51:39;;;;;;;3.17;1.25;;;;;;;;;;1692756;82;21018;-62
2022/04/16 07:54:05;;;;;;;4.67;1.72;;;;;;;;;;1691243;81;20931;-61
2022/04/16 07:56:31;;;;;;;4.05;1.07;;;;;;;;;;1668452;84;21001;-62
2022/04/16 07:58:57;;;;;;;2.65;0.93;;;;;;;;;;1664163;84;20914;-62
2022/04/16 08:01:22;;;;;;;3.65;1.20;;;;;;;;;;1696495;82;21691;-62
2022/04/16 08:03:48;;;;;;;3.25;1.32;;;;;;;;;;1696031;82;21087;-62
2022/04/16 08:06:14;;;;;;;3.42;1.20;;;;;;;;;;1667282;84;21001;-61
2022/04/16 08:08:40;;;;;;;3.42;1.20;;;;;;;;;;1706819;82;20989;-62
2022/04/16 08:11:06;;;;;;;4.12;1.52;;;;;;;;;;1689969;82;21072;-62
2022/04/16 08:13:33;;;;;;;4.58;1.45;;;;;;;;;;1700264;82;21092;-62
2022/04/16 08:15:58;;;;;;;5.85;1.50;;;;;;;;;;1678768;84;21869;-62
2022/04/16 08:18:24;;;;;;;5.12;1.70;;;;;;;;;;1691507;83;20969;-61
2022/04/16 08:20:50;;;;;;;5.97;1.77;;;;;;;;;;1693319;82;20918;-62
2022/04/16 08:23:17;;;;;;;5.95;2.35;;;;;;;;;;1663759;84;20925;-63
2022/04/16 08:28:11;;;;;;;4.47;1.50;;;;;;;;;;1691015;82;20939;-62
2022/04/16 08:30:37;;;;;;;2.58;1.30;;;;;;;;;;1709502;82;21090;-63
2022/04/16 08:33:05;;;;;;;2.47;1.37;;;;;;;;;;1704163;82;20903;-63
2022/04/16 08:35:31;;;;;;;3.22;1.10;;;;;;;;;;1698598;83;21485;-63
2022/04/16 08:37:57;;;;;;;5.47;1.80;;;;;;;;;;1674885;85;20903;-63
2022/04/16 08:40:23;;;;;;;2.25;1.25;;;;;;;;;;1672386;84;21005;-66
2022/04/16 08:42:49;;;;;;;3.25;1.17;;;;;;;;;;1683838;84;20953;-63
2022/04/16 08:45:15;;;;;;;2.12;1.00;;;;;;;;;;1702733;82;20939;-63
2022/04/16 08:47:41;;;;;;;3.25;1.15;;;;;;;;;;1669322;84;20970;-63
2022/04/16 08:50:08;;;;;;;3.98;0.90;;;;;;;;;;1693250;84;21645;-63
2022/04/16 08:52:36;;;;;;;3.08;1.57;;;;;;;;;;1688757;84;22192;-61
2022/04/16 08:55:03;;;;;;;1.82;1.17;;;;;;;;;;1664142;85;20997;-62
2022/04/16 08:57:29;;;;;;;3.33;0.95;;;;;;;;;;1693898;83;20996;-65
2022/04/16 08:59:57;;;;;;;2.27;1.57;;;;;;;;;;1703926;83;20979;-63
2022/04/16 09:02:22;;;;;;;;;;;;;;;;;;1685882;84;21081;-63
2022/04/16 09:04:49;;;;;;;3.95;1.60;;;;;;;;;;1702951;82;20997;-62
2022/04/16 09:07:15;;;;;;;2.33;1.20;;;;;;;;;;1689527;82;21000;-76
2022/04/16 09:09:42;;;;;;;2.60;1.30;;;;;;;;;;1701916;82;22148;-63
2022/04/16 09:12:21;;;;;;;10.10;2.15;;;;;;;;;;1706092;82;21568;-63
2022/04/16 09:14:47;;;;;;;1.65;1.10;;;;;;;;;;1699398;82;20902;-64
2022/04/16 09:17:16;;;;;;;3.00;1.40;;;;;;;;;;1699531;82;21419;-62
2022/04/16 09:19:43;;;;;;;3.83;1.50;;;;;;;;;;1706157;82;21055;-62
2022/04/16 09:22:09;;;;;;;2.83;0.90;;;;;;;;;;1702847;82;21039;-63
2022/04/16 09:24:45;;;;;;;1.90;0.98;;;;;;;;;;1702351;82;20960;-62
2022/04/16 09:27:11;;;;;;;3.50;1.47;;;;;;;;;;1722156;81;21558;-62
2022/04/16 09:29:37;;;;;;;3.15;1.12;;;;;;;;;;1744998;80;21236;-63
2022/04/16 09:32:04;;;;;;;1.98;1.15;;;;;;;;;;1741600;81;20973;-62
2022/04/16 09:34:30;;;;;;;2.37;0.93;;;;;;;;;;1746553;81;21025;-61
2022/04/16 09:36:56;;;;;;;1.82;1.12;;;;;;;;;;1744979;81;21576;-62
2022/04/16 09:39:22;;;;;;;4.12;1.17;;;;;;;;;;1748191;81;21082;-62
2022/04/16 09:41:51;;;;;;;1.40;0.80;;;;;;;;;;1742659;81;21613;-61
2022/04/16 09:44:17;;;;;;;6.12;1.98;;;;;;;;;;1732031;81;20972;-61
2022/04/16 09:46:44;;;;;;;4.42;1.52;;;;;;;;;;1732132;81;20928;-61
2022/04/16 09:49:10;;;;;;;4.45;1.25;;;;;;;;;;1732206;81;20982;-62
2022/04/16 09:51:37;;;;;;;3.70;2.37;;;;;;;;;;1738319;81;20965;-63
2022/04/16 09:54:05;;;;;;;7.70;3.92;;;;;;;;;;1711411;82;21019;-64
2022/04/16 09:56:32;;;;;;;5.65;2.50;;;;;;;;;;1696178;83;21051;-63
2022/04/16 09:59:07;;;;;;;4.00;1.42;;;;;;;;;;1736017;81;20949;-63
2022/04/16 10:01:32;;;;;;;1.47;0.80;;;;;;;;;;1747986;81;21012;-63
2022/04/16 10:04:00;;;;;;;5.65;3.72;;;;;;;;;;1745696;81;21542;-63
2022/04/16 10:06:28;;;;;;;1.30;1.00;;;;;;;;;;1744189;81;21071;-64
2022/04/16 10:08:55;;;;;;;2.08;0.70;;;;;;;;;;1738119;81;20959;-63
2022/04/16 10:11:42;;;;;;;2.42;1.15;;;;;;;;;;1729602;81;21294;-62
2022/04/16 10:13:56;;;;;;;5.90;1.40;;;;;;;;;;1741718;81;21594;-65
2022/04/16 10:16:36;;;;;;;3.87;1.40;;;;;;;;;;1725726;81;21049;-63
2022/04/16 10:19:04;;;;;;;5.95;3.70;;;;;;;;;;1734750;81;21052;-65
2022/04/16 10:21:33;;;;;;;9.83;5.45;;;;;;;;;;1701922;82;20961;-64
2022/04/16 10:24:01;;;;;;;4.95;2.85;;;;;;;;;;1725554;82;21029;-63
2022/04/16 10:26:28;;;;;;;2.80;1.10;;;;;;;;;;1717580;82;21547;-64
2022/04/16 10:28:55;;;;;;;3.08;1.40;;;;;;;;;;1692846;82;20965;-65
2022/04/16 10:31:25;;;;;;;1.77;0.90;;;;;;;;;;1724107;81;21025;-63
2022/04/16 10:34:02;;;;;;;2.05;1.07;;;;;;;;;;1736486;82;21681;-63
2022/04/16 10:36:32;;;;;;;2.27;0.85;;;;;;;;;;1738294;81;21068;-63
2022/04/16 10:38:59;;;;;;;2.95;1.00;;;;;;;;;;1742942;81;21015;-63
2022/04/16 10:41:25;;;;;;;;;;;;;;;;;;1742668;81;21467;-63
2022/04/16 10:43:57;;;;;;;1.22;0.60;;;;;;;;;;1736281;82;21353;-63
2022/04/16 10:46:24;;;;;;;2.80;1.00;;;;;;;;;;1728075;82;21015;-63
2022/04/16 10:48:50;;;;;;;2.15;0.60;;;;;;;;;;1735951;82;20956;-63
2022/04/16 10:51:22;;;;;;;1.57;0.82;;;;;;;;;;1738482;82;21030;-62
2022/04/16 10:53:48;;;;;;;2.62;1.30;;;;;;;;;;1737114;82;21026;-61
2022/04/16 10:56:23;;;;;;;2.02;1.30;;;;;;;;;;1736842;82;21419;-62
2022/04/16 10:58:47;;;;;;;1.77;0.70;;;;;;;;;;1707846;81;21472;-62
2022/04/16 11:01:15;;;;;;;2.37;0.80;;;;;;;;;;1702108;83;20983;-62
2022/04/16 11:03:50;;;;;;;1.35;0.70;;;;;;;;;;1676250;81;21009;-62
2022/04/16 11:06:17;;;;;;;0.82;0.62;;;;;;;;;;1720297;81;21011;-62
2022/04/16 11:08:45;;;;;;;1.00;0.60;;;;;;;;;;1739386;82;21381;-62
2022/04/16 11:11:12;;;;;;;3.75;0.80;;;;;;;;;;1741441;82;20981;-62
2022/04/16 11:13:38;;;;;;;2.30;0.80;;;;;;;;;;1734538;82;21025;-62
2022/04/16 11:16:05;;;;;;;2.33;0.83;;;;;;;;;;1738908;82;20938;-62
2022/04/16 11:18:38;;;;;;;1.23;0.70;;;;;;;;;;1736012;82;21065;-62
2022/04/16 11:21:08;;;;;;;1.87;0.72;;;;;;;;;;1734787;82;21867;-62
2022/04/16 11:23:45;;;;;;;1.50;0.65;;;;;;;;;;1736418;82;21108;-62
2022/04/16 11:34:29;;;;;;;3.10;1.10;;;;;;;;;;1730279;79;21062;-62
2022/04/16 11:36:55;;;;;;;1.25;0.60;;;;;;;;;;1727771;81;21534;-62
2022/04/16 11:39:22;;;;;;;2.10;0.98;;;;;;;;;;1737259;81;21062;-62
2022/04/16 11:41:53;;;;;;;1.35;0.60;;;;;;;;;;1738268;81;20993;-61
2022/04/16 11:44:45;;;;;;;1.15;0.72;;;;;;;;;;1737248;81;21028;-61
2022/04/16 11:47:05;;;;;;;2.95;1.35;;;;;;;;;;1728884;81;21790;-61
2022/04/16 11:49:31;;;;;;;0.65;0.65;;;;;;;;;;1740538;81;21062;-63
2022/04/16 11:51:58;;;;;;;1.87;0.90;;;;;;;;;;1735031;81;21599;-63
2022/04/16 11:54:28;;;;;;;1.23;0.80;;;;;;;;;;1741866;81;21074;-61
2022/04/16 11:56:57;;;;;;;1.72;0.72;;;;;;;;;;1736531;81;21050;-61
2022/04/16 11:59:24;;;;;;;1.07;0.50;;;;;;;;;;1728570;81;21195;-63
2022/04/16 12:01:51;;;;;;;;;;;;;;;;;;1729774;81;21009;-61
2022/04/16 12:04:16;;;;;;;2.85;1.00;;;;;;;;;;1727610;81;20163;-62
2022/04/16 12:06:43;;;;;;;2.30;0.80;;;;;;;;;;1731840;81;21026;-61
2022/04/16 12:12:24;;;;;;;3.25;1.12;;;;;;;8.44;59.25;101307.48;1782095;77;22418;-62
2022/04/16 12:14:52;;;;;;;1.20;0.65;;;;;;;8.41;57.49;101311.42;1774495;78;21088;-62
2022/04/16 12:17:25;;;;;;;0.68;0.50;;;;;;;8.48;58.73;101298.73;1787863;78;21097;-62
2022/04/16 12:20:10;;;;;;;1.55;0.65;;;;;;;8.14;55.64;101310.84;1783406;78;21668;-61
2022/04/16 12:22:54;;;;;;;3.02;0.80;;;;;;;7.92;58.04;101305.45;1782368;77;21536;-62
2022/04/16 12:25:24;;;;;;;1.72;0.88;;;;;;;7.81;56.80;101295.17;1773741;78;21140;-62
2022/04/16 12:27:54;;;;;;;1.82;0.62;;;;;;;7.57;57.54;101317.09;1776171;78;21039;-62
2022/04/16 12:30:27;;;;;;;2.80;1.12;;;;;;;7.38;57.31;101306.85;1748285;79;21492;-61
2022/04/16 12:33:01;;;;;;;3.40;0.88;;;;;;;7.60;56.67;101298.87;1773607;79;21025;-63
2022/04/16 12:35:30;;;;;;;3.17;1.27;;;;;;;7.81;59.24;101293.45;1750840;79;21558;-63
2022/04/16 12:37:58;;;;;;;1.07;0.60;;;;;;;7.97;58.03;101307.13;1755538;79;21014;-63
2022/04/16 12:40:28;;;;;;;2.83;0.88;;;;;;;8.30;59.29;101290.26;1748897;79;21132;-61
2022/04/16 12:42:56;;;;;;;1.55;0.90;;;;;;;8.49;58.19;101290.06;1766221;79;21116;-62
2022/04/16 12:45:24;;;;;;;1.40;0.90;;;;;;;8.28;52.82;101305.02;1753576;79;21105;-62
2022/04/16 12:47:54;;;;;;;1.65;0.80;;;;;;;7.81;54.88;101310.36;1777702;79;20998;-62
2022/04/16 12:50:22;;;;;;;1.27;0.88;;;;;;;7.65;55.53;101307.48;1764086;79;21030;-62
2022/04/16 12:52:49;;;;;;;1.80;0.80;;;;;;;7.73;57.25;101306.09;1759674;79;21084;-62
2022/04/16 12:55:16;;;;;;;3.12;0.98;;;;;;;7.78;56.60;101310.36;1768379;78;21484;-61
2022/04/16 12:57:44;;;;;;;1.67;0.80;;;;;;;7.67;55.87;101300.51;1732191;81;21738;-61
2022/04/16 13:00:14;;;;;;;1.90;1.70;;;;;;;7.58;57.28;101300.61;1728763;81;21069;-62
2022/04/16 13:05:30;;;;;;;1.80;0.80;;;;;;;7.35;54.81;101318.58;1525416;91;21718;-62
2022/04/16 13:07:59;;;;;;;2.17;0.82;;;;;;;7.50;56.34;101299.81;1562292;89;22118;-62
2022/04/16 13:10:26;;;;;;;5.35;1.30;;;;;;;7.73;57.01;101291.37;1531868;90;21136;-61
2022/04/16 13:12:53;;;;;;;1.52;1.02;;;;;;;7.77;56.99;101302.15;1555516;89;21088;-61
2022/04/16 13:15:20;;;;;;;2.35;1.25;;;;;;;7.74;57.25;101306.08;1527491;91;21117;-61
2022/04/16 13:17:47;;;;;;;1.52;1.10;;;;;;;7.58;55.57;101295.41;1536209;90;21192;-62
2022/04/16 13:20:14;;;;;;;2.37;0.90;;;;;;;7.57;56.29;101293.70;1542011;91;21118;-61
2022/04/16 13:22:40;;;;;;;2.47;1.20;;;;;;;7.43;57.08;101308.56;1517252;92;21123;-63
2022/04/16 13:25:09;;;;;;;2.20;0.80;;;;;;;7.52;57.19;101298.08;1546568;89;21094;-61
2022/04/16 13:27:36;;;;;;;7.42;3.83;;;;;;;7.55;54.79;101292.84;1524414;92;21052;-62
2022/04/16 13:30:04;;;;;;;6.35;3.02;;;;;;;7.45;55.50;101300.30;1546190;89;21245;-61
2022/04/16 13:32:31;;;;;;;4.28;2.05;;;;;;;7.73;56.23;101294.38;1536632;90;21887;-61
2022/04/16 13:34:57;;;;;;;5.10;1.25;;;;;;;7.99;56.21;101301.92;1540510;89;21193;-61
2022/04/16 13:37:24;;;;;;;3.17;1.17;;;;;;;8.02;54.02;101288.88;1523772;91;21103;-61
2022/04/16 13:42:36;;;;;;;3.85;1.92;;;;;;;7.66;52.72;101302.70;1545625;91;21012;-61
2022/04/16 13:45:04;;;;;;;3.83;2.20;;;;;;;7.51;54.47;101288.56;1558478;90;21654;-62
2022/04/16 13:47:31;;;;;;;4.12;1.25;;;;;;;7.47;54.57;101297.25;1551088;90;21684;-61
2022/04/16 13:49:58;;;;;;;1.20;0.70;;;;;;;7.62;54.43;101289.33;1561929;90;21134;-62
2022/04/16 13:52:25;;;;;;;4.40;1.03;;;;;;;7.74;55.15;101289.19;1563577;89;21796;-62
2022/04/16 13:54:54;;;;;;;1.20;0.70;;;;;;;7.77;54.98;101289.14;1554487;90;22041;-64
2022/04/16 13:57:21;;;;;;;3.67;1.17;;;;;;;7.84;54.84;101289.52;1528897;91;21091;-65
2022/04/16 13:59:48;;;;;;;0.95;0.60;;;;;;;7.91;54.75;101284.24;1536318;91;21219;-64
2022/04/16 14:02:15;;;;;;;0.65;0.35;;;;;;;7.89;54.36;101289.89;1551620;89;21167;-62
2022/04/16 14:07:27;;;;;;;1.32;0.70;;;;;;;7.73;53.23;101279.67;1539786;92;21349;-60
2022/04/16 14:09:53;;;;;;;0.90;0.70;;;;;;;7.47;52.60;101284.26;1566457;89;21480;-61
2022/04/16 14:12:20;;;;;;;5.10;1.10;;;;;;;7.52;54.21;101282.48;1538069;90;21052;-61
2022/04/16 14:14:50;;;;;;;1.97;1.00;;;;;;;7.44;51.04;101277.34;1553084;90;21012;-61
2022/04/16 14:17:16;;;;;;;1.82;0.80;;;;;;;7.36;53.24;101274.81;1536538;90;21631;-60
2022/04/16 14:19:43;;;;;;;2.20;1.27;;;;;;;7.40;53.23;101268.73;1531806;90;21260;-61
2022/04/16 14:22:10;;;;;;;3.03;1.83;;;;;;;7.44;53.09;101279.09;1546756;90;21631;-61
2022/04/16 14:24:37;;;;;;;1.90;0.88;;;;;;;7.42;52.67;101269.14;1531961;90;21160;-61
2022/04/16 14:27:05;;;;;;;1.40;0.80;;;;;;;7.47;53.91;101264.77;1546641;90;21205;-61
2022/04/16 14:29:32;;;;;;;1.75;0.93;;;;;;;7.36;53.37;101266.16;1546895;89;21070;-60
2022/04/16 14:31:59;;;;;;;3.62;0.70;;;;;;;7.42;53.39;101267.39;1555933;91;21112;-61
2022/04/16 14:34:26;;;;;;;1.07;0.70;;;;;;;7.35;53.48;101264.00;1537263;91;21650;-61
2022/04/16 14:36:52;;;;;;;0.67;0.50;;;;;;;7.32;53.08;101257.55;1562534;90;22282;-61
2022/04/16 14:39:19;;;;;;;1.05;0.57;;;;;;;7.36;53.11;101256.63;1566558;89;21136;-61
2022/04/16 14:41:46;;;;;;;1.40;0.70;;;;;;;7.28;51.84;101263.66;1529246;91;21195;-60
2022/04/16 14:44:13;;;;;;;1.30;0.80;;;;;;;7.15;52.21;101267.23;1563062;89;21158;-60